Time;durP1;ratioP1;P1;durP2;ratioP2;P2;SDS_P1;SDS_P2;PMS_P1;PMS_P2;Temp;Humidity;BMP_temperature;BMP_pressure;BME280_temperature;BME280_humidity;BME280_pressure;Samples;Min_cycle;Max_cycle;Signal;HPM_P1;HPM_P2
2022/06/06 00:00:10;;;;;;;4.45;2.67;;;20.00;93.10;;;;;;5072150;28;20055;-75
2022/06/06 00:02:36;;;;;;;4.07;1.52;;;20.00;92.90;;;;;;5055294;28;20024;-75
2022/06/06 00:05:04;;;;;;;7.15;2.03;;;20.00;92.90;;;;;;5053887;28;20028;-75
2022/06/06 00:07:30;;;;;;;2.20;1.80;;;20.00;92.90;;;;;;5071667;28;20028;-75
2022/06/06 00:09:55;;;;;;;2.50;1.70;;;19.90;92.80;;;;;;5072322;28;20020;-75
2022/06/06 00:12:23;;;;;;;2.65;1.83;;;19.90;92.90;;;;;;5072911;28;20380;-75
2022/06/06 00:14:48;;;;;;;3.35;2.00;;;20.00;92.90;;;;;;5054681;28;20060;-75
2022/06/06 00:17:14;;;;;;;8.20;1.90;;;20.00;92.90;;;;;;5055270;28;20487;-75
2022/06/06 00:19:40;;;;;;;4.13;1.92;;;20.00;93.00;;;;;;5073303;28;20024;-75
2022/06/06 00:22:07;;;;;;;2.90;1.70;;;20.00;93.00;;;;;;5055169;28;20357;-75
2022/06/06 00:24:33;;;;;;;2.28;1.67;;;20.00;93.10;;;;;;5072955;28;20025;-75
2022/06/06 00:26:59;;;;;;;3.05;1.48;;;20.00;93.00;;;;;;5073489;28;20037;-75
2022/06/06 00:29:26;;;;;;;2.33;1.88;;;20.00;93.10;;;;;;5073249;28;20067;-75
2022/06/06 00:34:54;;;;;;;;;;;20.10;93.10;;;;;;5073227;28;20112;-75
2022/06/06 00:37:26;;;;;;;2.25;1.65;;;20.10;93.20;;;;;;5073121;28;20324;-75
2022/06/06 00:39:53;;;;;;;8.15;2.05;;;20.10;93.00;;;;;;5073097;28;20029;-75
2022/06/06 00:42:29;;;;;;;2.30;1.70;;;20.10;93.10;;;;;;5062295;28;20394;-75
2022/06/06 00:45:17;;;;;;;4.90;1.50;;;20.10;93.10;;;;;;5035281;28;20029;-75
2022/06/06 00:47:45;;;;;;;1.80;1.50;;;20.20;93.10;;;;;;5052992;28;20051;-75
2022/06/06 00:50:19;;;;;;;3.47;1.73;;;20.20;93.20;;;;;;5035109;28;20376;-75
2022/06/06 00:52:48;;;;;;;2.58;1.63;;;20.20;93.10;;;;;;5035100;28;20484;-75
2022/06/06 00:55:21;;;;;;;4.68;1.58;;;20.20;93.10;;;;;;5034624;28;20053;-75
2022/06/06 00:57:54;;;;;;;4.00;1.90;;;20.20;93.10;;;;;;5052828;28;20029;-75
2022/06/06 01:00:21;;;;;;;2.67;1.53;;;20.20;93.10;;;;;;5035161;28;20036;-75
2022/06/06 01:02:51;;;;;;;2.97;1.83;;;20.20;93.10;;;;;;5052406;28;20334;-76
2022/06/06 01:05:19;;;;;;;4.22;2.28;;;20.20;93.10;;;;;;5035666;28;20025;-74
2022/06/06 01:07:44;;;;;;;2.72;2.03;;;20.20;92.90;;;;;;5056471;28;20029;-75
2022/06/06 01:10:10;;;;;;;10.25;1.88;;;20.20;93.00;;;;;;5056464;28;20021;-75
2022/06/06 01:12:38;;;;;;;2.40;1.77;;;20.20;93.00;;;;;;5038516;28;20029;-75
2022/06/06 01:15:08;;;;;;;4.97;2.20;;;20.20;93.00;;;;;;5038410;28;20025;-75
2022/06/06 01:17:58;;;;;;;3.88;1.85;;;20.20;92.90;;;;;;5038438;28;20035;-75
2022/06/06 01:20:39;;;;;;;5.13;1.92;;;20.10;92.90;;;;;;5056323;28;20103;-75
2022/06/06 01:23:30;;;;;;;4.03;2.00;;;20.10;92.80;;;;;;5054974;28;20354;-75
2022/06/06 01:26:27;;;;;;;3.15;1.90;;;20.10;92.70;;;;;;5056258;28;20053;-75
2022/06/06 01:29:06;;;;;;;4.47;1.85;;;20.10;92.90;;;;;;5038309;28;20028;-75
2022/06/06 01:31:54;;;;;;;1.67;1.42;;;20.10;93.00;;;;;;5055922;28;20029;-75
2022/06/06 01:34:27;;;;;;;2.15;1.70;;;20.10;93.10;;;;;;5038176;28;20029;-75
2022/06/06 01:36:54;;;;;;;5.43;2.15;;;20.10;93.10;;;;;;5037781;28;20028;-75
2022/06/06 01:39:22;;;;;;;2.28;1.67;;;20.10;93.10;;;;;;5038274;28;20040;-75
2022/06/06 01:42:11;;;;;;;5.90;2.15;;;20.10;93.10;;;;;;5054616;28;20029;-75
2022/06/06 01:44:45;;;;;;;4.53;1.50;;;20.10;93.10;;;;;;5054672;28;20025;-75
2022/06/06 01:47:14;;;;;;;;;;;20.10;93.10;;;;;;5056055;28;20056;-75
2022/06/06 01:49:41;;;;;;;2.72;1.90;;;20.20;93.40;;;;;;5055899;28;20263;-75
2022/06/06 01:52:10;;;;;;;2.92;2.00;;;20.20;93.20;;;;;;5037912;28;20107;-75
2022/06/06 01:54:36;;;;;;;2.30;1.40;;;20.20;93.20;;;;;;5041897;28;20493;-75
2022/06/06 01:57:04;;;;;;;1.98;1.60;;;20.20;93.20;;;;;;5018041;28;20038;-75
2022/06/06 01:59:30;;;;;;;1.75;1.45;;;20.20;93.20;;;;;;5036174;28;20087;-75
2022/06/06 02:01:56;;;;;;;2.75;1.80;;;20.20;93.20;;;;;;5035691;28;20052;-75
2022/06/06 02:04:22;;;;;;;1.73;1.55;;;20.20;93.30;;;;;;5035514;28;20026;-75
2022/06/06 02:06:47;;;;;;;3.20;1.98;;;20.20;93.30;;;;;;5017701;28;20044;-75
2022/06/06 02:09:13;;;;;;;1.40;1.20;;;20.20;93.20;;;;;;5035190;28;20025;-75
2022/06/06 02:11:39;;;;;;;2.30;1.50;;;20.20;93.20;;;;;;5036179;28;20350;-75
2022/06/06 02:14:07;;;;;;;4.45;1.70;;;20.20;93.20;;;;;;5054946;28;20033;-75
2022/06/06 02:16:33;;;;;;;2.72;1.83;;;20.20;93.20;;;;;;5054386;28;20384;-75
2022/06/06 02:18:59;;;;;;;3.13;1.88;;;20.20;93.10;;;;;;5037051;28;20038;-75
2022/06/06 02:21:25;;;;;;;2.95;1.50;;;20.20;93.10;;;;;;5055176;28;20504;-75
2022/06/06 02:23:50;;;;;;;3.72;1.63;;;20.20;93.00;;;;;;5037449;28;20025;-75
2022/06/06 02:26:16;;;;;;;3.00;1.98;;;20.20;93.10;;;;;;5054980;28;20029;-75
2022/06/06 02:28:42;;;;;;;3.53;1.73;;;20.20;93.10;;;;;;5037163;28;20029;-75
2022/06/06 02:31:08;;;;;;;6.93;1.90;;;20.20;93.10;;;;;;5054767;28;20385;-75
2022/06/06 02:33:35;;;;;;;2.83;1.60;;;20.20;93.00;;;;;;5054679;28;20078;-75
2022/06/06 02:36:02;;;;;;;4.47;1.85;;;20.10;93.00;;;;;;5036928;28;20025;-75
2022/06/06 02:38:29;;;;;;;2.63;1.70;;;20.20;93.30;;;;;;5036797;28;20033;-74
2022/06/06 02:41:07;;;;;;;4.00;1.73;;;20.10;92.90;;;;;;5054497;28;20025;-75
2022/06/06 02:43:34;;;;;;;2.80;2.05;;;20.10;92.90;;;;;;5035326;28;20025;-75
2022/06/06 02:46:01;;;;;;;4.70;2.22;;;20.10;92.90;;;;;;5034775;28;20112;-75
2022/06/06 02:48:27;;;;;;;2.13;1.30;;;20.10;92.90;;;;;;5034437;28;20048;-75
2022/06/06 02:50:53;;;;;;;5.85;2.10;;;20.10;92.90;;;;;;5034972;28;20057;-75
2022/06/06 02:53:19;;;;;;;4.50;1.88;;;20.00;92.80;;;;;;5034322;28;20403;-74
2022/06/06 02:55:45;;;;;;;2.55;2.08;;;20.00;92.70;;;;;;5034567;28;20036;-75
2022/06/06 02:58:11;;;;;;;4.80;1.85;;;20.00;92.70;;;;;;5034850;28;20103;-74
2022/06/06 03:00:42;;;;;;;4.35;2.28;;;19.90;92.70;;;;;;5034393;28;20052;-74
2022/06/06 03:03:09;;;;;;;4.20;2.10;;;19.80;92.70;;;;;;5034347;28;20572;-75
2022/06/06 03:06:11;;;;;;;2.50;1.67;;;19.80;92.60;;;;;;5033110;28;20036;-74
2022/06/06 03:09:07;;;;;;;2.00;1.55;;;19.70;92.80;;;;;;5034056;28;20022;-75
2022/06/06 03:11:49;;;;;;;2.45;1.70;;;19.70;92.80;;;;;;5045249;28;20025;-75
2022/06/06 03:14:50;;;;;;;1.70;1.40;;;19.70;92.80;;;;;;5036277;28;20028;-74
2022/06/06 03:20:49;;;;;;;4.05;1.90;;;19.60;92.90;;;;;;5053765;28;20496;-74
2022/06/06 03:23:51;;;;;;;3.05;1.90;;;19.60;93.00;;;;;;5035929;28;20174;-74
2022/06/06 03:26:23;;;;;;;6.60;2.00;;;19.50;93.00;;;;;;5053542;28;20025;-75
2022/06/06 03:29:03;;;;;;;5.65;2.05;;;19.50;92.80;;;;;;5053743;28;20048;-75
2022/06/06 03:31:47;;;;;;;4.05;1.95;;;19.50;92.90;;;;;;5035943;28;20025;-75
2022/06/06 03:34:29;;;;;;;;;;;19.40;92.90;;;;;;5036028;28;20043;-75
2022/06/06 03:37:19;;;;;;;2.50;2.25;;;19.40;93.40;;;;;;5052505;28;19908;-75
2022/06/06 03:40:09;;;;;;;2.40;1.92;;;19.40;92.90;;;;;;5034403;28;20453;-75
2022/06/06 03:42:53;;;;;;;4.00;2.67;;;19.30;92.90;;;;;;5053676;28;20036;-75
2022/06/06 03:45:43;;;;;;;3.05;2.08;;;19.30;93.10;;;;;;5053593;28;20032;-75
2022/06/06 03:48:36;;;;;;;3.88;2.53;;;19.30;93.20;;;;;;5053142;28;20029;-74
2022/06/06 03:51:17;;;;;;;4.35;2.38;;;19.30;93.30;;;;;;5034609;28;20025;-75
2022/06/06 03:54:06;;;;;;;5.15;2.25;;;19.40;93.40;;;;;;5035357;28;20420;-75
2022/06/06 03:56:47;;;;;;;3.30;2.20;;;19.40;93.50;;;;;;5052939;28;20477;-75
2022/06/06 03:59:14;;;;;;;20.25;2.88;;;19.50;93.70;;;;;;5053422;28;20117;-74
2022/06/06 04:01:42;;;;;;;3.20;2.30;;;19.50;93.60;;;;;;5053052;28;20025;-74
2022/06/06 04:04:09;;;;;;;5.68;2.35;;;19.50;93.70;;;;;;5053016;28;20072;-75
2022/06/06 04:06:35;;;;;;;3.80;2.70;;;19.60;93.70;;;;;;5052957;28;20476;-74
2022/06/06 04:09:02;;;;;;;4.65;3.08;;;19.70;93.80;;;;;;5052877;28;20053;-74
2022/06/06 04:11:44;;;;;;;7.63;3.20;;;19.70;93.90;;;;;;5052965;28;20029;-75
2022/06/06 04:14:37;;;;;;;3.92;2.63;;;19.70;93.90;;;;;;5053228;28;20029;-75
2022/06/06 04:17:27;;;;;;;5.22;2.97;;;19.80;94.10;;;;;;5052873;28;20025;-75
2022/06/06 04:20:23;;;;;;;5.43;3.25;;;19.90;94.10;;;;;;5035221;28;20035;-75
2022/06/06 04:23:22;;;;;;;6.50;2.78;;;20.00;94.10;;;;;;5035357;28;20055;-75
2022/06/06 04:26:10;;;;;;;2.58;2.38;;;20.10;94.10;;;;;;5053429;28;20167;-75
2022/06/06 04:29:21;;;;;;;3.85;2.63;;;20.10;94.00;;;;;;5034911;28;20032;-75
2022/06/06 04:32:02;;;;;;;4.15;2.80;;;20.10;93.90;;;;;;5052623;28;20428;-75
2022/06/06 04:35:16;;;;;;;4.72;3.33;;;20.20;93.80;;;;;;5035196;28;20465;-75
2022/06/06 04:38:05;;;;;;;6.68;3.53;;;20.20;94.00;;;;;;5048780;28;20423;-75
2022/06/06 04:41:00;;;;;;;4.80;2.67;;;20.30;93.90;;;;;;5036327;28;20116;-75
2022/06/06 04:43:29;;;;;;;;;;;20.30;94.10;;;;;;5057257;28;20469;-74
2022/06/06 04:46:13;;;;;;;10.43;3.58;;;20.40;94.50;;;;;;5056647;28;19940;-75
2022/06/06 04:48:40;;;;;;;3.38;2.70;;;20.50;94.20;;;;;;5056688;28;20024;-75
2022/06/06 04:51:07;;;;;;;5.95;3.22;;;20.50;94.00;;;;;;5056866;28;20058;-75
2022/06/06 04:53:39;;;;;;;4.75;3.05;;;20.60;93.70;;;;;;5060332;28;20510;-75
2022/06/06 04:56:07;;;;;;;5.75;3.28;;;20.60;93.90;;;;;;5076547;28;20036;-75
2022/06/06 04:58:35;;;;;;;4.10;3.40;;;20.70;93.90;;;;;;5058830;28;20059;-75
2022/06/06 05:01:02;;;;;;;6.38;3.20;;;20.70;93.80;;;;;;5058743;28;20028;-75
2022/06/06 05:03:28;;;;;;;5.82;3.47;;;20.80;93.90;;;;;;5058660;28;20062;-75
2022/06/06 05:06:26;;;;;;;5.90;3.13;;;20.90;93.80;;;;;;5076681;28;20429;-75
2022/06/06 05:09:05;;;;;;;8.07;3.28;;;20.80;93.90;;;;;;5076243;28;20495;-75
2022/06/06 05:11:39;;;;;;;5.60;2.83;;;20.90;93.50;;;;;;5076572;28;20017;-75
2022/06/06 05:14:35;;;;;;;5.47;2.80;;;20.90;93.60;;;;;;5076230;28;20025;-75
2022/06/06 05:17:12;;;;;;;5.63;3.15;;;20.90;93.90;;;;;;5076075;28;20044;-75
2022/06/06 05:20:08;;;;;;;7.30;2.92;;;20.90;93.70;;;;;;5076117;28;20033;-75
2022/06/06 05:22:56;;;;;;;6.68;3.53;;;21.00;94.00;;;;;;5076084;28;20025;-75
2022/06/06 05:25:31;;;;;;;4.78;2.90;;;21.10;93.90;;;;;;5058061;28;20056;-75
2022/06/06 05:28:26;;;;;;;4.90;3.15;;;21.20;93.70;;;;;;5076008;28;20081;-75
2022/06/06 05:30:56;;;;;;;5.43;3.38;;;21.30;93.80;;;;;;5058256;28;20032;-75
2022/06/06 05:34:02;;;;;;;5.70;3.00;;;21.30;93.70;;;;;;5076332;28;20024;-75
2022/06/06 05:36:31;;;;;;;5.03;3.20;;;21.30;93.60;;;;;;5057980;28;20032;-75
2022/06/06 05:39:24;;;;;;;4.30;2.95;;;21.30;93.20;;;;;;5074734;28;20029;-75
2022/06/06 05:42:07;;;;;;;3.58;3.15;;;21.30;93.20;;;;;;5075680;28;20523;-75
2022/06/06 05:44:53;;;;;;;4.20;3.20;;;21.30;93.10;;;;;;5057943;28;20384;-75
2022/06/06 05:48:10;;;;;;;4.35;3.00;;;21.20;92.90;;;;;;5075588;28;20540;-74
2022/06/06 05:51:23;;;;;;;6.53;3.42;;;21.20;93.10;;;;;;5013460;28;20038;-75
2022/06/06 05:54:12;;;;;;;5.72;3.33;;;21.10;92.90;;;;;;4934599;29;20555;-75
2022/06/06 05:56:58;;;;;;;4.60;2.88;;;21.10;92.50;;;;;;4935247;29;20039;-75
2022/06/06 05:59:30;;;;;;;7.05;3.90;;;21.00;93.00;;;;;;4936020;29;20055;-75
2022/06/06 06:02:29;;;;;;;7.30;3.78;;;21.00;92.50;;;;;;4936071;29;20059;-75
2022/06/06 06:05:18;;;;;;;6.03;3.80;;;20.90;92.80;;;;;;4936401;29;20048;-75
2022/06/06 06:08:02;;;;;;;9.27;4.22;;;20.90;93.10;;;;;;4921842;29;20044;-75
2022/06/06 06:10:43;;;;;;;6.90;4.20;;;20.90;92.20;;;;;;4916982;29;20044;-75
2022/06/06 06:13:44;;;;;;;4.40;3.88;;;20.90;92.60;;;;;;4901088;29;20036;-75
2022/06/06 06:16:13;;;;;;;4.05;3.65;;;20.90;93.20;;;;;;4901009;29;20464;-75
2022/06/06 06:18:47;;;;;;;6.55;5.13;;;20.90;92.90;;;;;;4916816;29;20036;-75
2022/06/06 06:21:25;;;;;;;7.07;5.10;;;20.90;92.60;;;;;;4916748;29;20033;-75
2022/06/06 06:24:12;;;;;;;6.63;4.93;;;20.80;92.80;;;;;;4932503;29;20042;-75
2022/06/06 06:26:39;;;;;;;7.13;4.72;;;20.90;93.20;;;;;;4942686;29;20043;-75
2022/06/06 06:29:09;;;;;;;5.25;4.75;;;20.90;92.90;;;;;;4941273;28;20519;-75
2022/06/06 06:31:49;;;;;;;5.70;5.05;;;20.90;92.90;;;;;;5017269;28;20507;-75
2022/06/06 06:34:24;;;;;;;11.65;5.10;;;21.00;93.50;;;;;;5035122;28;20029;-75
2022/06/06 06:37:05;;;;;;;8.05;4.70;;;21.00;93.30;;;;;;5035069;28;20036;-75
2022/06/06 06:39:48;;;;;;;6.72;4.63;;;21.10;93.40;;;;;;5017202;28;20029;-75
2022/06/06 06:42:47;;;;;;;8.05;5.10;;;21.20;93.60;;;;;;5034790;28;20029;-75
2022/06/06 06:45:23;;;;;;;8.43;4.85;;;21.20;93.70;;;;;;5016971;28;20036;-75
2022/06/06 06:48:03;;;;;;;5.82;4.50;;;21.30;93.30;;;;;;5034754;28;20061;-75
2022/06/06 06:51:11;;;;;;;5.47;4.32;;;21.40;93.50;;;;;;5034811;28;20029;-75
2022/06/06 06:54:11;;;;;;;7.05;5.13;;;21.40;93.40;;;;;;4977115;28;20078;-75
2022/06/06 06:57:20;;;;;;;5.40;4.85;;;21.50;93.60;;;;;;4993014;28;20077;-75
2022/06/06 07:00:19;;;;;;;4.93;4.50;;;21.50;93.90;;;;;;4992986;28;20038;-74
2022/06/06 07:10:02;;;;;;;5.53;5.03;;;22.00;94.40;;;;;;5012394;28;20113;-75
2022/06/06 07:13:03;;;;;;;6.55;4.50;;;22.00;93.90;;;;;;4995811;28;20034;-75
2022/06/06 07:15:46;;;;;;;6.05;4.70;;;22.10;93.60;;;;;;4995738;28;20041;-75
2022/06/06 07:18:15;;;;;;;11.15;5.20;;;22.10;93.70;;;;;;5012152;28;20039;-75
2022/06/06 07:20:44;;;;;;;9.52;4.30;;;22.10;92.90;;;;;;5012029;28;20046;-75
2022/06/06 07:23:13;;;;;;;8.30;4.68;;;22.10;93.10;;;;;;5012088;28;20025;-75
2022/06/06 07:25:47;;;;;;;7.45;5.35;;;22.10;92.70;;;;;;5012102;28;20070;-75
2022/06/06 07:28:22;;;;;;;4.95;4.18;;;22.10;93.10;;;;;;5025858;28;20483;-75
2022/06/06 07:31:25;;;;;;;5.50;4.60;;;22.20;93.60;;;;;;5036035;28;20031;-75
2022/06/06 07:34:15;;;;;;;10.18;4.65;;;22.20;93.90;;;;;;5053891;28;20033;-75
2022/06/06 07:37:04;;;;;;;8.95;4.32;;;22.30;93.70;;;;;;5036095;28;20075;-75
2022/06/06 07:39:52;;;;;;;4.35;3.92;;;22.30;92.90;;;;;;5036007;28;20051;-75
2022/06/06 07:42:51;;;;;;;8.18;4.70;;;22.30;93.60;;;;;;5054043;28;20025;-75
2022/06/06 07:45:38;;;;;;;4.40;4.00;;;22.40;92.90;;;;;;5035899;28;20028;-75
2022/06/06 07:48:34;;;;;;;5.28;4.50;;;22.40;93.50;;;;;;5053682;28;20028;-75
2022/06/06 07:51:18;;;;;;;5.28;4.28;;;22.30;92.40;;;;;;5053622;28;20031;-75
2022/06/06 07:54:01;;;;;;;5.72;4.55;;;22.40;92.90;;;;;;5053421;28;20088;-75
2022/06/06 07:56:41;;;;;;;6.72;4.55;;;22.40;92.90;;;;;;5035724;28;20033;-75
2022/06/06 07:59:23;;;;;;;6.68;4.07;;;22.40;92.60;;;;;;5035293;28;20385;-76
2022/06/06 08:02:12;;;;;;;5.65;4.40;;;22.40;92.40;;;;;;5035210;28;20076;-76
2022/06/06 08:04:52;;;;;;;4.65;3.85;;;22.30;92.30;;;;;;5065678;28;20031;-76
2022/06/06 08:07:36;;;;;;;4.55;3.97;;;22.30;91.70;;;;;;5055515;28;20032;-77
2022/06/06 08:10:42;;;;;;;5.53;4.32;;;22.30;92.40;;;;;;5055434;28;20029;-76
2022/06/06 08:13:35;;;;;;;6.28;4.60;;;22.30;92.90;;;;;;5055370;28;20031;-76
2022/06/06 08:16:33;;;;;;;8.00;3.95;;;22.30;92.20;;;;;;5072540;28;20043;-76
2022/06/06 08:19:14;;;;;;;5.22;4.07;;;22.30;92.20;;;;;;5062066;28;20076;-76
2022/06/06 08:21:39;;;;;;;7.20;3.80;;;22.20;91.90;;;;;;5055225;28;20025;-75
2022/06/06 08:24:11;;;;;;;4.50;4.05;;;22.30;92.10;;;;;;5072965;28;20541;-76
2022/06/06 08:26:43;;;;;;;6.80;4.28;;;22.30;91.90;;;;;;5055251;28;20025;-76
2022/06/06 08:29:09;;;;;;;4.85;4.20;;;22.30;92.20;;;;;;5055169;28;20419;-77
2022/06/06 08:31:36;;;;;;;5.75;4.03;;;22.40;92.30;;;;;;5073064;28;20028;-76
2022/06/06 08:34:03;;;;;;;6.20;4.30;;;22.40;92.40;;;;;;5073157;28;20091;-76
2022/06/06 08:36:51;;;;;;;8.32;4.28;;;22.40;91.70;;;;;;5055045;28;20036;-76
2022/06/06 08:39:29;;;;;;;4.22;3.83;;;22.40;92.50;;;;;;5073049;28;20067;-76
2022/06/06 08:42:12;;;;;;;5.57;4.38;;;22.60;92.50;;;;;;5073135;28;20032;-77
2022/06/06 08:45:08;;;;;;;4.30;3.75;;;22.60;92.60;;;;;;5055115;28;20055;-77
2022/06/06 08:48:04;;;;;;;7.10;3.58;;;22.50;92.20;;;;;;5072939;28;20024;-77
2022/06/06 08:51:00;;;;;;;5.10;3.70;;;22.50;92.10;;;;;;5054810;28;20423;-77
2022/06/06 08:54:00;;;;;;;3.90;3.42;;;22.60;92.40;;;;;;5072456;28;20052;-77
2022/06/06 08:56:31;;;;;;;4.05;3.38;;;22.60;92.60;;;;;;5072866;28;20037;-76
2022/06/06 08:59:09;;;;;;;9.25;3.83;;;22.60;92.10;;;;;;5073284;28;20044;-77
2022/06/06 09:01:40;;;;;;;5.55;3.05;;;22.60;91.80;;;;;;5072636;28;20035;-77
2022/06/06 09:04:51;;;;;;;5.95;3.85;;;22.60;91.30;;;;;;5072625;28;20024;-77
2022/06/06 09:07:53;;;;;;;4.38;3.30;;;22.60;92.20;;;;;;4991056;28;20509;-77
2022/06/06 09:10:54;;;;;;;4.88;3.47;;;22.70;92.40;;;;;;4991033;28;20106;-77
2022/06/06 09:13:47;;;;;;;6.65;3.70;;;22.70;92.50;;;;;;4991176;28;20394;-76
2022/06/06 09:16:40;;;;;;;7.10;3.95;;;22.70;92.10;;;;;;4974706;28;20481;-77
2022/06/06 09:19:36;;;;;;;4.82;3.63;;;22.60;91.30;;;;;;4991093;28;20046;-77
2022/06/06 09:22:23;;;;;;;4.55;3.72;;;22.70;92.00;;;;;;4991145;28;20040;-76
2022/06/06 09:25:18;;;;;;;5.57;3.63;;;22.80;92.20;;;;;;4991077;28;20046;-76
2022/06/06 09:28:02;;;;;;;5.00;3.65;;;22.90;92.60;;;;;;4977650;28;20035;-76
2022/06/06 09:30:46;;;;;;;6.60;3.70;;;23.00;92.60;;;;;;4994593;28;20150;-76
2022/06/06 09:33:58;;;;;;;5.97;3.63;;;23.00;91.80;;;;;;4994530;28;20030;-76
2022/06/06 09:36:59;;;;;;;7.90;3.92;;;23.00;92.30;;;;;;4994432;28;20474;-76
2022/06/06 09:39:33;;;;;;;7.30;3.17;;;22.90;91.80;;;;;;4991833;28;20553;-76
2022/06/06 09:42:27;;;;;;;;;;;22.90;90.60;;;;;;4978571;28;20029;-76
2022/06/06 09:45:20;;;;;;;5.47;2.90;;;23.00;92.80;;;;;;5072108;28;19905;-76
2022/06/06 09:48:03;;;;;;;4.18;3.67;;;23.20;92.50;;;;;;5075613;28;20419;-76
2022/06/06 09:50:50;;;;;;;5.05;2.97;;;23.20;91.50;;;;;;5058031;28;20043;-76
2022/06/06 10:00:09;;;;;;;7.68;3.88;;;23.70;93.20;;;;;;5075603;28;20037;-76
2022/06/06 10:03:06;;;;;;;4.60;3.15;;;23.70;91.90;;;;;;5057752;28;20059;-77
2022/06/06 10:05:58;;;;;;;4.95;3.20;;;23.70;91.50;;;;;;5058035;28;20123;-76
2022/06/06 10:09:02;;;;;;;4.90;3.65;;;23.90;92.20;;;;;;5057324;28;20087;-76
2022/06/06 10:11:41;;;;;;;9.07;3.38;;;24.00;92.30;;;;;;5075441;28;20373;-78
2022/06/06 10:14:31;;;;;;;4.40;3.30;;;24.00;91.10;;;;;;5057630;28;20056;-75
2022/06/06 10:17:25;;;;;;;4.90;3.10;;;24.00;90.50;;;;;;5075542;28;20170;-76
2022/06/06 10:20:24;;;;;;;4.03;3.10;;;24.10;90.80;;;;;;5057573;28;20039;-76
2022/06/06 10:23:21;;;;;;;3.58;2.83;;;24.20;91.30;;;;;;5057420;28;20021;-76
2022/06/06 10:25:47;;;;;;;3.65;2.78;;;24.30;91.70;;;;;;5075415;28;20058;-76
2022/06/06 10:28:22;;;;;;;4.65;3.10;;;24.50;90.80;;;;;;5075245;28;20032;-76
2022/06/06 10:31:14;;;;;;;3.58;3.10;;;24.60;90.70;;;;;;5075152;28;20111;-75
2022/06/06 10:34:16;;;;;;;3.65;3.28;;;24.60;90.90;;;;;;5075060;28;20028;-75
2022/06/06 10:36:57;;;;;;;9.48;3.33;;;24.80;91.70;;;;;;5075049;28;20032;-76
2022/06/06 10:39:57;;;;;;;3.67;2.70;;;24.80;88.40;;;;;;5074327;28;20103;-75
2022/06/06 10:42:53;;;;;;;4.25;2.67;;;24.80;90.00;;;;;;5057031;28;20090;-75
2022/06/06 10:45:35;;;;;;;3.88;2.67;;;24.80;89.20;;;;;;5074883;28;20024;-76
2022/06/06 10:48:16;;;;;;;5.30;2.40;;;24.90;88.30;;;;;;5056924;28;20127;-75
2022/06/06 10:54:19;;;;;;;3.60;2.50;;;25.00;89.60;;;;;;5074341;28;20128;-75
2022/06/06 10:57:32;;;;;;;2.85;2.63;;;25.00;90.10;;;;;;5074712;28;20514;-75
2022/06/06 11:00:22;;;;;;;4.20;2.90;;;25.20;90.20;;;;;;5070214;28;20496;-75
2022/06/06 11:03:00;;;;;;;5.38;3.75;;;25.20;86.60;;;;;;5056612;28;20383;-74
2022/06/06 11:05:51;;;;;;;3.15;2.60;;;25.10;84.00;;;;;;5074150;28;20074;-75
2022/06/06 11:08:42;;;;;;;2.92;2.30;;;25.20;87.70;;;;;;5074495;28;20028;-74
2022/06/06 11:11:37;;;;;;;3.67;2.17;;;25.30;87.50;;;;;;5074423;28;20151;-74
2022/06/06 11:14:02;;;;;;;;;;;25.30;84.70;;;;;;5071323;28;20052;-74
2022/06/06 11:16:49;;;;;;;3.75;2.28;;;25.40;90.40;;;;;;5084974;28;20375;-74
2022/06/06 11:19:40;;;;;;;3.13;2.25;;;25.40;80.90;;;;;;5089171;28;20043;-75
2022/06/06 11:22:32;;;;;;;4.10;2.42;;;25.40;86.60;;;;;;5053334;28;20025;-74
2022/06/06 11:25:14;;;;;;;2.90;2.05;;;25.50;87.20;;;;;;5069980;28;20060;-74
2022/06/06 11:27:57;;;;;;;6.47;2.47;;;25.60;85.30;;;;;;5071109;28;20479;-74
2022/06/06 11:30:55;;;;;;;5.95;2.40;;;25.50;80.90;;;;;;5055766;28;20443;-74
2022/06/06 11:33:45;;;;;;;3.00;2.33;;;25.50;84.70;;;;;;5060974;28;20047;-75
2022/06/06 11:36:45;;;;;;;4.72;2.83;;;25.60;82.20;;;;;;5091653;28;20043;-74
2022/06/06 11:39:42;;;;;;;3.45;2.65;;;25.60;82.40;;;;;;5062675;28;20082;-74
2022/06/06 11:42:54;;;;;;;3.38;2.20;;;25.70;83.30;;;;;;5076572;28;20119;-74
2022/06/06 11:45:59;;;;;;;5.22;2.20;;;25.70;79.90;;;;;;4991751;28;20030;-74
2022/06/06 11:48:45;;;;;;;3.65;2.30;;;25.80;83.40;;;;;;4992204;28;20521;-74
2022/06/06 11:51:43;;;;;;;3.67;2.38;;;25.90;81.90;;;;;;5063543;28;20040;-75
2022/06/06 11:54:36;;;;;;;3.60;2.15;;;26.00;82.60;;;;;;5046364;28;20056;-74
2022/06/06 11:57:43;;;;;;;4.28;2.58;;;26.10;79.50;;;;;;5035641;28;20408;-75
2022/06/06 12:00:22;;;;;;;3.22;2.35;;;26.30;79.20;;;;;;5032459;28;20099;-75
2022/06/06 12:03:15;;;;;;;3.67;2.17;;;26.40;77.80;;;;;;5033045;28;20181;-76
2022/06/06 12:06:04;;;;;;;6.57;2.47;;;26.40;76.10;;;;;;5015774;28;20026;-77
2022/06/06 12:08:47;;;;;;;3.95;2.00;;;26.60;76.00;;;;;;5015557;28;20076;-79
2022/06/06 12:11:43;;;;;;;3.95;2.42;;;26.60;72.50;;;;;;5033239;28;20477;-82
2022/06/06 12:14:26;;;;;;;3.63;2.80;;;26.80;77.00;;;;;;5033497;28;20026;-84
2022/06/06 12:17:06;;;;;;;2.65;2.00;;;26.80;68.00;;;;;;5016633;28;20039;-88
2022/06/06 12:19:34;;;;;;;3.22;1.95;;;26.80;63.70;;;;;;5017270;28;20075;-88
2022/06/06 12:22:19;;;;;;;3.55;1.90;;;26.90;64.30;;;;;;5017141;28;20480;-88
2022/06/06 12:25:15;;;;;;;2.75;1.83;;;26.90;67.30;;;;;;5017643;28;20030;-89
2022/06/06 12:28:16;;;;;;;6.95;1.98;;;27.00;65.10;;;;;;5018200;28;20029;-87
2022/06/06 12:30:54;;;;;;;3.58;2.75;;;27.00;62.30;;;;;;4977580;28;20041;-89
2022/06/06 12:33:38;;;;;;;3.45;1.83;;;27.10;65.40;;;;;;4993821;28;20038;-90
2022/06/06 12:36:14;;;;;;;2.40;1.75;;;27.10;59.10;;;;;;4977025;28;20082;-90
2022/06/06 12:38:55;;;;;;;2.03;1.50;;;27.20;58.50;;;;;;4993424;28;20082;-90
2022/06/06 12:41:38;;;;;;;4.18;1.60;;;27.20;58.60;;;;;;5009668;28;20117;-93
2022/06/06 12:44:24;;;;;;;5.72;1.90;;;27.30;58.50;;;;;;5009572;28;20057;-90
2022/06/06 12:46:59;;;;;;;2.05;1.80;;;27.30;58.40;;;;;;4976889;28;20070;-90
2022/06/06 12:49:39;;;;;;;2.97;1.60;;;27.40;56.10;;;;;;4992743;28;20068;-91
2022/06/06 12:52:23;;;;;;;2.25;1.88;;;27.40;57.30;;;;;;4993067;28;20541;-90
2022/06/06 12:55:33;;;;;;;1.60;1.40;;;27.40;58.50;;;;;;5006397;28;20085;-90
2022/06/06 12:58:14;;;;;;;3.45;2.25;;;27.40;61.40;;;;;;5011478;28;20128;-91
2022/06/06 13:03:45;;;;;;;4.43;1.98;;;27.50;55.80;;;;;;5036274;28;20508;-88
2022/06/06 13:07:07;;;;;;;3.80;1.70;;;27.60;57.80;;;;;;5070934;28;20092;-89
2022/06/06 13:09:51;;;;;;;4.03;1.95;;;27.70;62.90;;;;;;4996332;28;20037;-89
2022/06/06 13:12:40;;;;;;;2.58;1.60;;;27.80;59.10;;;;;;5094050;28;20024;-88
2022/06/06 13:15:25;;;;;;;3.25;1.80;;;27.90;58.70;;;;;;5059643;28;20035;-88
2022/06/06 13:18:11;;;;;;;6.35;1.88;;;28.00;61.60;;;;;;5059458;28;20029;-88
2022/06/06 13:21:04;;;;;;;4.85;2.03;;;28.10;62.80;;;;;;5060072;28;20035;-88
2022/06/06 13:24:01;;;;;;;3.03;2.03;;;28.20;59.80;;;;;;5059459;28;20113;-88
2022/06/06 13:26:55;;;;;;;2.65;1.63;;;28.50;59.20;;;;;;5059365;28;20033;-87
2022/06/06 13:29:33;;;;;;;4.90;1.38;;;28.90;61.10;;;;;;5059967;28;20020;-88
2022/06/06 13:32:15;;;;;;;2.70;1.60;;;29.20;59.80;;;;;;5059418;28;20035;-87
2022/06/06 13:35:00;;;;;;;2.42;1.63;;;29.60;62.90;;;;;;5059519;28;20440;-86
2022/06/06 13:38:04;;;;;;;3.38;2.28;;;30.10;58.80;;;;;;5059123;28;20029;-85
2022/06/06 13:40:37;;;;;;;4.05;1.92;;;30.70;62.00;;;;;;5059088;28;20024;-83
2022/06/06 13:43:30;;;;;;;2.77;2.30;;;31.40;63.70;;;;;;5058889;28;20029;-84
2022/06/06 13:46:17;;;;;;;1.63;1.45;;;32.10;63.90;;;;;;5058400;28;20384;-83
2022/06/06 13:49:24;;;;;;;2.45;1.60;;;32.70;59.30;;;;;;5058372;28;20060;-83
2022/06/06 13:52:02;;;;;;;3.03;2.00;;;33.30;55.80;;;;;;5020887;28;20033;-83
2022/06/06 13:54:32;;;;;;;3.05;1.58;;;33.80;56.60;;;;;;5064360;28;20465;-81
2022/06/06 13:57:24;;;;;;;2.55;1.67;;;34.30;49.00;;;;;;5037965;28;20032;-81
2022/06/06 14:00:15;;;;;;;2.88;1.60;;;34.80;56.30;;;;;;5038637;28;20029;-81
2022/06/06 14:02:48;;;;;;;2.20;1.52;;;35.60;54.80;;;;;;5037815;28;20029;-79
2022/06/06 14:05:36;;;;;;;1.30;1.20;;;36.20;53.20;;;;;;5037719;28;20061;-81
2022/06/06 14:08:10;;;;;;;14.10;1.70;;;36.90;52.70;;;;;;5037856;28;20037;-82
2022/06/06 14:11:02;;;;;;;1.90;1.35;;;37.60;49.50;;;;;;5037517;28;20029;-79
2022/06/06 14:13:48;;;;;;;1.87;1.33;;;38.20;48.50;;;;;;5036599;28;20029;-78
2022/06/06 14:16:18;;;;;;;3.75;1.60;;;38.80;50.00;;;;;;5037524;28;20294;-79
2022/06/06 14:18:45;;;;;;;1.60;1.50;;;39.30;46.50;;;;;;5037271;28;20028;-78
2022/06/06 14:21:23;;;;;;;2.55;1.85;;;39.90;46.60;;;;;;5037480;28;20112;-79
2022/06/06 14:23:49;;;;;;;1.95;1.20;;;40.40;44.20;;;;;;5037063;28;20033;-79
2022/06/06 14:26:19;;;;;;;2.63;1.55;;;40.80;47.50;;;;;;5054877;28;20025;-79
2022/06/06 14:29:04;;;;;;;1.73;1.20;;;41.10;39.50;;;;;;5037175;28;20479;-80
2022/06/06 14:31:41;;;;;;;1.30;1.20;;;41.50;37.00;;;;;;5037468;28;20040;-80